createdAt,value
2023-05-21T00:00:00.032Z,64.60
2023-05-21T00:04:03.596Z,64.70
2023-05-21T00:08:07.086Z,64.80
2023-05-21T00:12:10.234Z,65.00
2023-05-21T00:16:13.223Z,65.10
2023-05-21T00:20:16.434Z,65.10
2023-05-21T00:24:19.326Z,65.10
2023-05-21T00:28:22.305Z,65.10
2023-05-21T00:32:26.339Z,65.00
2023-05-21T00:36:30.924Z,65.10
2023-05-21T00:40:35.446Z,65.10
2023-05-21T00:44:38.709Z,65.10
2023-05-21T00:48:41.707Z,65.10
2023-05-21T00:52:45.866Z,65.10
2023-05-21T00:56:49.246Z,65.10
2023-05-21T01:00:55.909Z,65.10
2023-05-21T01:05:01.500Z,65.20
2023-05-21T01:09:06.506Z,65.10
2023-05-21T01:13:10.081Z,65.10
2023-05-21T01:17:14.709Z,65.10
2023-05-21T01:21:19.642Z,65.00
2023-05-21T01:25:25.703Z,64.90
2023-05-21T01:29:28.619Z,64.80
2023-05-21T01:33:45.266Z,64.50
2023-05-21T01:37:48.460Z,64.30
2023-05-21T01:41:54.870Z,64.20
2023-05-21T01:46:01.879Z,64.20
2023-05-21T01:50:06.548Z,64.30
2023-05-21T01:54:10.419Z,64.30
2023-05-21T01:58:13.240Z,64.30
2023-05-21T02:02:16.757Z,64.30
2023-05-21T02:06:19.741Z,64.30
2023-05-21T02:10:22.720Z,64.40
2023-05-21T02:14:26.475Z,64.40
2023-05-21T02:18:29.546Z,64.50
2023-05-21T02:22:32.659Z,64.60
2023-05-21T02:26:36.003Z,64.70
2023-05-21T02:30:38.858Z,64.70
2023-05-21T02:34:43.997Z,64.70
2023-05-21T02:38:47.757Z,64.60
2023-05-21T02:42:50.758Z,64.60
2023-05-21T02:46:56.362Z,64.60
2023-05-21T02:50:59.744Z,64.70
2023-05-21T02:55:02.695Z,64.60
2023-05-21T02:59:05.662Z,64.60
2023-05-21T03:03:08.760Z,64.60
2023-05-21T03:07:18.082Z,64.70
2023-05-21T03:11:22.725Z,64.60
2023-05-21T03:15:26.125Z,64.70
2023-05-21T03:19:30.905Z,64.70
2023-05-21T03:23:35.003Z,64.70
2023-05-21T03:27:39.230Z,64.80
2023-05-21T03:31:48.995Z,64.80
2023-05-21T03:35:51.943Z,64.80
2023-05-21T03:39:55.899Z,64.90
2023-05-21T03:43:58.868Z,64.80
2023-05-21T03:48:06.880Z,64.80
2023-05-21T03:52:09.946Z,64.80
2023-05-21T03:56:12.945Z,64.70
2023-05-21T04:00:17.195Z,64.70
2023-05-21T04:04:20.649Z,64.60
2023-05-21T04:08:24.294Z,64.60
2023-05-21T04:12:27.128Z,64.50
2023-05-21T04:16:30.181Z,64.40
2023-05-21T04:20:33.225Z,64.40
2023-05-21T04:24:38.240Z,64.40
2023-05-21T04:28:54.109Z,64.40
2023-05-21T04:32:58.108Z,64.30
2023-05-21T04:37:02.454Z,64.30
2023-05-21T04:41:07.111Z,64.20
2023-05-21T04:45:10.597Z,64.10
2023-05-21T04:49:15.793Z,64.10
2023-05-21T04:53:21.137Z,64.00
2023-05-21T04:57:28.261Z,64.00
2023-05-21T05:01:32.713Z,64.00
2023-05-21T05:05:37.879Z,64.00
2023-05-21T05:09:41.454Z,64.00
2023-05-21T05:13:44.764Z,64.00
2023-05-21T05:17:50.792Z,63.90
2023-05-21T05:21:54.134Z,63.70
2023-05-21T05:25:57.419Z,63.60
2023-05-21T05:30:00.447Z,63.50
2023-05-21T05:34:03.527Z,63.40
2023-05-21T05:38:09.091Z,63.50
2023-05-21T05:42:13.395Z,63.50
2023-05-21T05:46:16.790Z,63.40
2023-05-21T05:50:20.017Z,63.20
2023-05-21T05:54:25.699Z,63.20
2023-05-21T05:58:31.002Z,63.30
2023-05-21T06:02:45.942Z,63.00
2023-05-21T06:06:49.394Z,63.00
2023-05-21T06:10:52.598Z,63.00
2023-05-21T06:14:55.667Z,63.10
2023-05-21T06:18:58.980Z,63.00
2023-05-21T06:23:09.034Z,62.80
2023-05-21T06:27:12.650Z,62.80
2023-05-21T06:31:16.465Z,62.90
2023-05-21T06:35:20.682Z,62.80
2023-05-21T06:39:24.800Z,62.90
2023-05-21T06:43:28.940Z,62.60
2023-05-21T06:47:50.773Z,62.80
2023-05-21T06:51:53.979Z,62.60
2023-05-21T06:55:57.678Z,62.50
2023-05-21T07:00:12.449Z,62.00
2023-05-21T07:04:16.284Z,62.00
2023-05-21T07:08:20.545Z,61.90
2023-05-21T07:12:23.588Z,62.20
2023-05-21T07:16:27.120Z,62.10
2023-05-21T07:20:30.303Z,62.20
2023-05-21T07:24:37.288Z,61.90
2023-05-21T07:28:40.205Z,61.50
2023-05-21T07:32:43.335Z,61.10
2023-05-21T07:36:46.650Z,59.40
2023-05-21T07:40:49.644Z,58.00
2023-05-21T07:44:52.778Z,57.60
2023-05-21T07:48:56.052Z,57.60
2023-05-21T07:52:59.384Z,57.50
2023-05-21T07:57:03.066Z,57.40
2023-05-21T08:01:33.280Z,56.90
2023-05-21T08:05:37.006Z,56.60
2023-05-21T08:09:40.218Z,55.80
2023-05-21T08:13:44.346Z,55.90
2023-05-21T08:17:49.255Z,54.30
2023-05-21T08:21:53.059Z,54.10
2023-05-21T08:25:58.053Z,53.80
2023-05-21T08:30:01.492Z,53.00
2023-05-21T08:34:04.742Z,52.70
2023-05-21T08:38:19.325Z,52.20
2023-05-21T08:42:47.521Z,52.40
2023-05-21T08:46:59.378Z,51.60
2023-05-21T08:51:02.750Z,51.60
2023-05-21T08:55:10.705Z,49.80
2023-05-21T08:59:17.450Z,49.50
2023-05-21T09:03:22.716Z,50.50
2023-05-21T09:07:30.876Z,49.20
2023-05-21T09:11:51.974Z,49.40
2023-05-21T09:15:55.186Z,48.70
2023-05-21T09:20:17.558Z,48.70
2023-05-21T09:24:35.267Z,47.80
2023-05-21T09:28:45.415Z,47.50
2023-05-21T09:33:00.593Z,48.00
2023-05-21T09:37:06.548Z,47.90
2023-05-21T09:42:19.286Z,47.80
2023-05-21T09:46:44.137Z,48.00
2023-05-21T09:51:06.126Z,48.40
2023-05-21T10:01:55.768Z,48.50
2023-05-21T10:06:31.367Z,48.60
2023-05-21T10:10:36.279Z,48.60
2023-05-21T10:15:14.602Z,48.40
2023-05-21T10:19:40.778Z,49.10
2023-05-21T10:23:46.132Z,48.60
2023-05-21T10:27:49.987Z,47.70
2023-05-21T10:31:53.388Z,47.40
2023-05-21T10:35:59.685Z,47.80
2023-05-21T10:40:02.856Z,46.50
2023-05-21T10:44:18.149Z,47.70
2023-05-21T10:48:29.973Z,47.30
2023-05-21T10:52:43.408Z,46.00
2023-05-21T10:57:05.728Z,46.20
2023-05-21T11:01:09.531Z,46.10
2023-05-21T11:05:12.445Z,46.00
2023-05-21T11:09:17.441Z,46.10
2023-05-21T11:13:24.667Z,47.30
2023-05-21T11:17:42.325Z,46.90
2023-05-21T11:21:53.784Z,46.50
2023-05-21T11:26:03.948Z,46.10
2023-05-21T11:30:08.717Z,45.80
2023-05-21T11:34:32.032Z,45.70
2023-05-21T11:38:35.062Z,46.30
2023-05-21T11:42:42.556Z,46.20
2023-05-21T11:46:46.644Z,45.80
2023-05-21T11:50:50.561Z,45.70
2023-05-21T11:54:57.582Z,45.90
2023-05-21T11:59:02.943Z,45.10
2023-05-21T12:03:07.415Z,43.30
2023-05-21T12:07:13.348Z,43.50
2023-05-21T12:11:16.405Z,41.60
2023-05-21T12:15:20.232Z,42.50
2023-05-21T12:19:23.197Z,42.80
2023-05-21T12:23:26.194Z,42.50
2023-05-21T12:27:31.253Z,42.40
2023-05-21T12:31:46.764Z,43.20
2023-05-21T12:35:50.432Z,43.20
2023-05-21T12:40:11.687Z,43.40
2023-05-21T12:44:14.679Z,43.10
2023-05-21T12:48:17.952Z,43.40
2023-05-21T12:52:23.625Z,42.70
2023-05-21T12:56:26.954Z,43.20
2023-05-21T13:00:29.786Z,42.30
2023-05-21T13:04:38.932Z,42.40
2023-05-21T13:08:42.189Z,43.50
2023-05-21T13:12:45.618Z,43.20
2023-05-21T13:16:49.680Z,43.30
2023-05-21T13:20:52.806Z,43.30
2023-05-21T13:24:56.091Z,44.00
2023-05-21T13:28:58.935Z,43.20
2023-05-21T13:33:02.472Z,43.50
2023-05-21T13:37:05.417Z,43.90
2023-05-21T13:41:08.299Z,43.60
2023-05-21T13:45:12.550Z,44.00
2023-05-21T13:49:15.478Z,44.10
2023-05-21T13:53:18.700Z,44.10
2023-05-21T13:57:22.318Z,43.80
2023-05-21T14:01:25.158Z,43.90
2023-05-21T14:05:28.065Z,43.50
2023-05-21T14:09:31.537Z,43.40
2023-05-21T14:13:34.428Z,43.50
2023-05-21T14:17:40.618Z,43.40
2023-05-21T14:21:47.292Z,43.70
2023-05-21T14:25:50.421Z,43.40
2023-05-21T14:29:53.431Z,42.70
2023-05-21T14:33:56.677Z,42.70
2023-05-21T14:37:59.868Z,42.60
2023-05-21T14:42:06.522Z,43.10
2023-05-21T14:46:09.664Z,42.90
2023-05-21T14:50:15.094Z,43.50
2023-05-21T14:54:19.675Z,46.30
2023-05-21T14:58:22.695Z,46.20
2023-05-21T15:02:26.751Z,47.40
2023-05-21T15:06:30.393Z,48.20
2023-05-21T15:10:35.727Z,47.50
2023-05-21T15:14:39.042Z,47.80
2023-05-21T15:18:41.934Z,47.70
2023-05-21T15:22:46.665Z,47.40
2023-05-21T15:26:49.901Z,46.90
2023-05-21T15:30:55.237Z,46.20
2023-05-21T15:35:01.218Z,45.50
2023-05-21T15:39:06.397Z,44.50
2023-05-21T15:43:10.519Z,43.70
2023-05-21T15:47:13.469Z,44.10
2023-05-21T15:51:16.425Z,43.30
2023-05-21T15:55:19.838Z,42.10
2023-05-21T15:59:25.255Z,41.00
2023-05-21T16:03:28.439Z,39.60
2023-05-21T16:07:37.021Z,39.00
2023-05-21T16:11:42.094Z,38.80
2023-05-21T16:15:45.633Z,38.70
2023-05-21T16:26:10.308Z,39.90
2023-05-21T16:30:14.256Z,37.30
2023-05-21T16:34:17.358Z,36.90
2023-05-21T16:38:22.088Z,36.20
2023-05-21T16:42:30.533Z,36.10
2023-05-21T16:46:42.885Z,35.70
2023-05-21T16:50:47.252Z,35.60
2023-05-21T16:54:50.957Z,36.10
2023-05-21T16:58:53.739Z,37.90
2023-05-21T17:02:56.856Z,38.90
2023-05-21T17:06:59.706Z,39.70
2023-05-21T17:11:02.806Z,40.80
2023-05-21T17:15:06.615Z,41.90
2023-05-21T17:19:09.739Z,41.40
2023-05-21T17:23:12.981Z,41.70
2023-05-21T17:27:16.626Z,42.00
2023-05-21T17:31:19.512Z,42.10
2023-05-21T17:35:22.413Z,42.40
2023-05-21T17:39:25.450Z,42.70
2023-05-21T17:43:28.501Z,43.10
2023-05-21T17:47:33.011Z,43.50
2023-05-21T17:51:37.169Z,43.40
2023-05-21T17:55:40.620Z,43.20
2023-05-21T17:59:45.360Z,43.70
2023-05-21T18:03:48.297Z,44.30
2023-05-21T18:07:51.606Z,45.00
2023-05-21T18:11:55.015Z,45.20
2023-05-21T18:15:59.122Z,45.40
2023-05-21T18:20:04.064Z,45.90
2023-05-21T18:24:08.432Z,46.20
2023-05-21T18:28:11.218Z,46.70
2023-05-21T18:32:16.702Z,46.90
2023-05-21T18:36:19.591Z,47.40
2023-05-21T18:40:23.111Z,47.50
2023-05-21T18:44:27.366Z,47.60
2023-05-21T18:48:30.263Z,47.80
2023-05-21T18:52:33.011Z,47.80
2023-05-21T18:56:35.769Z,47.90
2023-05-21T19:00:39.754Z,48.10
2023-05-21T19:04:43.185Z,48.30
2023-05-21T19:08:46.444Z,48.60
2023-05-21T19:12:49.637Z,48.60
2023-05-21T19:16:53.304Z,48.90
2023-05-21T19:20:56.663Z,48.80
2023-05-21T19:25:00.801Z,49.10
2023-05-21T19:29:03.687Z,49.20
2023-05-21T19:33:08.510Z,49.50
2023-05-21T19:37:11.620Z,49.20
2023-05-21T19:41:19.649Z,49.10
2023-05-21T19:45:23.009Z,49.10
2023-05-21T19:49:25.930Z,48.90
2023-05-21T19:53:29.078Z,48.90
2023-05-21T19:57:32.708Z,48.80
2023-05-21T20:01:39.405Z,48.80
2023-05-21T20:05:42.523Z,48.80
2023-05-21T20:09:45.472Z,48.90
2023-05-21T20:13:50.269Z,49.10
2023-05-21T20:17:54.135Z,49.40
2023-05-21T20:21:56.909Z,49.60
2023-05-21T20:25:59.787Z,49.50
2023-05-21T20:30:02.775Z,49.60
2023-05-21T20:34:07.551Z,49.60
2023-05-21T20:38:10.505Z,49.70
2023-05-21T20:42:15.099Z,49.80
2023-05-21T20:46:18.608Z,49.90
2023-05-21T20:50:25.901Z,50.00
2023-05-21T20:54:30.712Z,50.00
2023-05-21T20:58:33.712Z,50.10
2023-05-21T21:02:41.524Z,50.10
2023-05-21T21:06:46.654Z,50.10
2023-05-21T21:10:50.278Z,50.30
2023-05-21T21:14:53.243Z,50.40
2023-05-21T21:18:56.271Z,50.50
2023-05-21T21:22:59.031Z,50.50
2023-05-21T21:27:02.297Z,50.60
2023-05-21T21:31:05.182Z,50.80
2023-05-21T21:35:08.393Z,50.90
2023-05-21T21:39:11.560Z,51.00
2023-05-21T21:43:14.393Z,51.10
2023-05-21T21:47:17.242Z,51.30
2023-05-21T21:51:23.205Z,51.40
2023-05-21T21:55:26.628Z,51.60
2023-05-21T21:59:29.447Z,51.80
2023-05-21T22:03:34.356Z,51.90
2023-05-21T22:07:38.836Z,51.90
2023-05-21T22:11:42.098Z,52.00
2023-05-21T22:15:44.946Z,52.10
2023-05-21T22:19:48.029Z,52.30
2023-05-21T22:23:50.886Z,52.60
2023-05-21T22:27:53.859Z,52.70
2023-05-21T22:31:56.759Z,52.60
2023-05-21T22:35:59.677Z,52.80
2023-05-21T22:40:02.463Z,52.90
2023-05-21T22:44:05.671Z,53.20
2023-05-21T22:48:09.837Z,53.20
2023-05-21T22:52:14.692Z,53.10
2023-05-21T22:56:17.743Z,53.10
2023-05-21T23:00:20.816Z,53.10
2023-05-21T23:04:35.597Z,53.20
2023-05-21T23:08:43.023Z,53.10
2023-05-21T23:12:45.936Z,53.10
2023-05-21T23:16:48.740Z,53.40
2023-05-21T23:20:52.124Z,54.00
2023-05-21T23:24:55.328Z,54.40
2023-05-21T23:28:58.258Z,54.70
2023-05-21T23:33:01.224Z,54.80
2023-05-21T23:37:04.168Z,55.00
2023-05-21T23:41:07.742Z,55.20
2023-05-21T23:45:10.983Z,55.40
2023-05-21T23:49:14.014Z,55.40
2023-05-21T23:53:17.358Z,55.30
2023-05-21T23:57:20.182Z,55.20
